Time;durP1;ratioP1;P1;durP2;ratioP2;P2;SDS_P1;SDS_P2;PMS_P1;PMS_P2;Temp;Humidity;BMP_temperature;BMP_pressure;BME280_temperature;BME280_humidity;BME280_pressure;Samples;Min_cycle;Max_cycle;Signal;HPM_P1;HPM_P2
2022/09/01 00:01:38;;;;;;;3.70;3.45;;;23.30;76.40;;;;;;5032229;28;20176;-70
2022/09/01 00:04:07;;;;;;;3.80;3.50;;;23.30;76.50;;;;;;5018113;28;20215;-70
2022/09/01 00:06:33;;;;;;;3.60;3.30;;;23.30;76.50;;;;;;5028812;28;20188;-70
2022/09/01 00:09:07;;;;;;;4.15;3.85;;;23.30;76.50;;;;;;5013392;28;20239;-70
2022/09/01 00:11:34;;;;;;;4.20;3.80;;;23.20;76.40;;;;;;5012029;28;20176;-70
2022/09/01 00:14:02;;;;;;;4.38;4.03;;;23.30;76.90;;;;;;5013654;28;20184;-70
2022/09/01 00:16:30;;;;;;;3.85;3.55;;;23.20;76.40;;;;;;5028744;28;20176;-70
2022/09/01 00:18:56;;;;;;;4.38;4.00;;;23.30;76.50;;;;;;5031649;28;20691;-70
2022/09/01 00:21:33;;;;;;;4.18;3.78;;;23.20;76.40;;;;;;5031316;28;20632;-70
2022/09/01 00:24:00;;;;;;;4.20;3.90;;;23.20;76.40;;;;;;5031761;28;20194;-70
2022/09/01 00:26:26;;;;;;;3.92;3.60;;;23.30;76.50;;;;;;5031626;28;20713;-70
2022/09/01 00:28:52;;;;;;;3.70;3.40;;;23.30;76.50;;;;;;5031809;28;20215;-70
2022/09/01 00:31:19;;;;;;;3.70;3.40;;;23.20;76.40;;;;;;5031112;28;20234;-70
2022/09/01 00:33:47;;;;;;;4.03;3.67;;;23.30;76.50;;;;;;5031330;28;20190;-70
2022/09/01 00:36:13;;;;;;;3.58;3.28;;;23.20;76.40;;;;;;5031848;28;20188;-70
2022/09/01 00:38:39;;;;;;;4.15;3.85;;;23.20;76.40;;;;;;5031626;28;20191;-71
2022/09/01 00:41:06;;;;;;;3.97;3.67;;;23.20;76.40;;;;;;5031239;28;20274;-70
2022/09/01 00:43:46;;;;;;;3.70;3.40;;;23.20;76.40;;;;;;5015329;28;20188;-70
2022/09/01 00:46:23;;;;;;;3.83;3.53;;;23.20;76.40;;;;;;5032532;28;20403;-70
2022/09/01 00:49:00;;;;;;;3.97;3.67;;;23.20;76.40;;;;;;5036070;28;20236;-70
2022/09/01 00:51:28;;;;;;;4.15;3.85;;;23.20;76.40;;;;;;5030742;28;20182;-70
2022/09/01 00:53:56;;;;;;;4.15;3.75;;;23.20;76.40;;;;;;5031014;28;20218;-70
2022/09/01 00:56:23;;;;;;;3.65;3.45;;;23.20;76.40;;;;;;5031291;28;20211;-70
2022/09/01 00:58:52;;;;;;;4.20;3.90;;;23.20;76.40;;;;;;5031417;28;20183;-70
2022/09/01 01:01:18;;;;;;;3.78;3.47;;;23.20;76.40;;;;;;5030716;28;20682;-70
2022/09/01 01:03:45;;;;;;;3.90;3.60;;;23.30;76.50;;;;;;5030977;28;20210;-70
2022/09/01 01:06:15;;;;;;;4.15;3.85;;;23.20;76.40;;;;;;5014731;28;20194;-70
2022/09/01 01:08:55;;;;;;;3.85;3.47;;;23.20;76.40;;;;;;5014720;28;20211;-70
2022/09/01 01:11:23;;;;;;;4.05;3.65;;;23.20;76.40;;;;;;5030721;28;20171;-70
2022/09/01 01:13:57;;;;;;;4.00;3.70;;;23.20;76.40;;;;;;5031324;28;20179;-70
2022/09/01 01:16:27;;;;;;;3.40;3.15;;;23.20;76.40;;;;;;5031209;28;20178;-70
2022/09/01 01:18:54;;;;;;;3.38;3.15;;;23.20;76.40;;;;;;5031991;28;20194;-71
2022/09/01 01:24:33;;;;;;;4.10;3.80;;;23.20;76.40;;;;;;5030989;28;20210;-70
2022/09/01 01:27:00;;;;;;;3.88;3.58;;;23.20;76.40;;;;;;5030926;28;20182;-70
2022/09/01 01:29:32;;;;;;;3.40;3.20;;;23.20;76.40;;;;;;5046774;28;20211;-70
2022/09/01 01:31:59;;;;;;;3.80;3.50;;;23.20;76.40;;;;;;5031021;28;20182;-70
2022/09/01 01:34:25;;;;;;;3.40;3.20;;;23.20;76.40;;;;;;5030687;28;20662;-70
2022/09/01 01:36:52;;;;;;;4.10;3.72;;;23.20;76.40;;;;;;5030843;28;20183;-70
2022/09/01 01:39:27;;;;;;;3.70;3.40;;;23.20;76.40;;;;;;5030420;28;20195;-70
2022/09/01 01:41:57;;;;;;;4.28;3.97;;;23.20;76.40;;;;;;5031044;28;20654;-70
2022/09/01 01:44:27;;;;;;;3.90;3.60;;;23.20;76.40;;;;;;5030743;28;20205;-70
2022/09/01 01:46:56;;;;;;;3.83;3.53;;;23.20;76.40;;;;;;5030956;28;20214;-70
2022/09/01 01:49:27;;;;;;;3.78;3.47;;;23.20;76.40;;;;;;5035031;28;20211;-70
2022/09/01 01:51:56;;;;;;;3.92;3.60;;;23.20;76.40;;;;;;5047265;28;20183;-70
2022/09/01 01:54:31;;;;;;;4.40;4.00;;;23.20;76.40;;;;;;5031167;28;20183;-70
2022/09/01 01:56:59;;;;;;;3.95;3.65;;;23.20;76.40;;;;;;5047048;28;20238;-70
2022/09/01 01:59:25;;;;;;;4.05;3.75;;;23.20;76.40;;;;;;5030221;28;20225;-70
2022/09/01 02:01:52;;;;;;;4.03;3.70;;;23.20;76.40;;;;;;5014320;28;20187;-70
2022/09/01 02:04:19;;;;;;;4.18;3.88;;;23.20;77.20;;;;;;5014053;28;20583;-70
2022/09/01 02:06:48;;;;;;;4.15;3.75;;;23.20;76.40;;;;;;5013559;28;20565;-70
2022/09/01 02:09:20;;;;;;;3.50;3.28;;;23.20;76.40;;;;;;5030076;28;20216;-70
2022/09/01 02:11:45;;;;;;;3.65;3.40;;;23.20;76.40;;;;;;5033863;28;20216;-70
2022/09/01 02:14:15;;;;;;;3.40;3.20;;;23.20;76.40;;;;;;5034126;28;20184;-70
2022/09/01 02:16:41;;;;;;;3.78;3.30;;;23.20;76.40;;;;;;5017994;28;20207;-71
2022/09/01 02:19:11;;;;;;;3.97;3.67;;;23.20;76.40;;;;;;5034064;28;20207;-71
2022/09/01 02:21:48;;;;;;;3.40;3.20;;;23.20;76.40;;;;;;5033220;28;20183;-70
2022/09/01 02:24:14;;;;;;;3.67;3.38;;;23.20;76.40;;;;;;5034039;28;20179;-71
2022/09/01 02:26:47;;;;;;;3.72;3.53;;;23.20;76.40;;;;;;5034103;28;20215;-70
2022/09/01 02:29:21;;;;;;;3.90;3.60;;;23.10;76.20;;;;;;5034529;28;20218;-70
2022/09/01 02:31:51;;;;;;;3.90;3.58;;;23.10;76.20;;;;;;5033416;28;20175;-70
2022/09/01 02:34:18;;;;;;;3.95;3.63;;;23.10;76.20;;;;;;5033964;28;20175;-70
2022/09/01 02:36:48;;;;;;;4.30;4.00;;;23.10;76.20;;;;;;5033754;28;20186;-70
2022/09/01 02:39:32;;;;;;;3.70;3.40;;;23.10;76.20;;;;;;5017592;28;20294;-70
2022/09/01 02:42:00;;;;;;;3.70;3.40;;;23.10;76.30;;;;;;5034043;28;20187;-70
2022/09/01 02:44:29;;;;;;;3.00;2.80;;;23.10;76.30;;;;;;5034225;28;20735;-70
2022/09/01 02:46:57;;;;;;;4.07;3.78;;;23.20;76.40;;;;;;5033693;28;20233;-70
2022/09/01 02:49:27;;;;;;;3.40;3.20;;;23.20;76.40;;;;;;5016638;28;20211;-70
2022/09/01 02:51:58;;;;;;;3.80;3.50;;;23.20;76.40;;;;;;5033358;28;20183;-70
2022/09/01 02:54:26;;;;;;;3.60;3.40;;;23.10;76.20;;;;;;5033593;28;20286;-70
2022/09/01 02:56:53;;;;;;;3.75;3.45;;;23.10;76.10;;;;;;5033512;28;20184;-70
2022/09/01 02:59:26;;;;;;;3.25;3.05;;;23.10;76.20;;;;;;5033261;28;20218;-70
2022/09/01 03:01:53;;;;;;;3.80;3.50;;;23.10;76.10;;;;;;5033158;28;20182;-70
2022/09/01 03:04:21;;;;;;;3.92;3.63;;;23.10;76.20;;;;;;5033110;28;20183;-70
2022/09/01 03:06:48;;;;;;;3.60;3.35;;;23.10;76.20;;;;;;5033516;28;20268;-70
2022/09/01 03:09:17;;;;;;;4.10;3.80;;;23.10;76.20;;;;;;5033288;28;20219;-70
2022/09/01 03:11:48;;;;;;;3.72;3.42;;;23.10;76.20;;;;;;5032926;28;20184;-70
2022/09/01 03:14:15;;;;;;;3.75;3.45;;;23.20;76.40;;;;;;5016740;28;20175;-70
2022/09/01 03:16:42;;;;;;;3.55;3.35;;;23.10;76.20;;;;;;5016594;28;20262;-70
2022/09/01 03:19:10;;;;;;;3.70;3.40;;;23.10;76.30;;;;;;5032696;28;20214;-70
2022/09/01 03:21:40;;;;;;;3.70;3.50;;;23.20;76.40;;;;;;5032320;28;20833;-70
2022/09/01 03:24:14;;;;;;;3.47;3.17;;;23.10;76.20;;;;;;5032935;28;20195;-70
2022/09/01 03:26:42;;;;;;;3.60;3.35;;;23.10;76.20;;;;;;5033242;28;20231;-70
2022/09/01 03:29:09;;;;;;;3.83;3.55;;;23.20;76.20;;;;;;5016403;28;20300;-70
2022/09/01 03:31:36;;;;;;;3.10;2.90;;;23.10;76.10;;;;;;5032368;28;20180;-70
2022/09/01 03:34:04;;;;;;;3.20;3.00;;;23.10;76.10;;;;;;5016522;28;20179;-70
2022/09/01 03:36:34;;;;;;;3.50;3.20;;;23.10;76.00;;;;;;5033296;28;20719;-70
2022/09/01 03:39:01;;;;;;;3.40;3.17;;;23.10;76.00;;;;;;5015940;28;20238;-70
2022/09/01 03:41:29;;;;;;;3.50;3.25;;;23.10;76.00;;;;;;5032342;28;20179;-70
2022/09/01 03:43:57;;;;;;;3.60;3.30;;;23.10;76.10;;;;;;5032554;28;20218;-70
2022/09/01 03:46:26;;;;;;;3.58;3.28;;;23.10;76.10;;;;;;5032405;28;20191;-70
2022/09/01 03:48:57;;;;;;;3.78;3.47;;;23.10;76.10;;;;;;5015900;28;20297;-70
2022/09/01 03:51:25;;;;;;;3.20;3.00;;;23.10;76.10;;;;;;5015565;28;20226;-70
2022/09/01 03:53:53;;;;;;;3.53;3.22;;;23.10;76.20;;;;;;5032069;28;20176;-70
2022/09/01 03:56:22;;;;;;;3.58;3.30;;;23.10;76.10;;;;;;5032577;28;20180;-70
2022/09/01 03:58:48;;;;;;;3.58;3.30;;;23.20;76.30;;;;;;5015759;28;20195;-70
2022/09/01 04:01:16;;;;;;;3.35;3.15;;;23.10;76.20;;;;;;5032293;28;20221;-70
2022/09/01 04:03:46;;;;;;;3.40;3.20;;;23.10;76.30;;;;;;5032478;28;20183;-70
2022/09/01 04:06:12;;;;;;;3.15;2.95;;;23.10;76.00;;;;;;5015764;28;20217;-70
2022/09/01 04:08:38;;;;;;;3.40;3.20;;;23.10;76.00;;;;;;5032029;28;20211;-70
2022/09/01 04:11:15;;;;;;;3.78;3.38;;;23.10;76.00;;;;;;5014948;28;20643;-70
2022/09/01 04:13:41;;;;;;;3.20;3.00;;;23.10;76.00;;;;;;5031960;28;20218;-70
2022/09/01 04:19:18;;;;;;;3.80;3.53;;;23.10;76.00;;;;;;5031719;28;20222;-70
2022/09/01 04:21:50;;;;;;;3.30;3.10;;;23.10;76.00;;;;;;5031388;28;20282;-70
2022/09/01 04:24:17;;;;;;;3.33;3.13;;;23.10;76.00;;;;;;5031721;28;20191;-70
2022/09/01 04:26:47;;;;;;;3.50;3.20;;;23.10;76.10;;;;;;5031734;28;20187;-70
2022/09/01 04:29:18;;;;;;;3.00;2.80;;;23.10;76.10;;;;;;5014750;28;20223;-70
2022/09/01 04:31:47;;;;;;;3.83;3.53;;;23.10;76.00;;;;;;5031207;28;20179;-70
2022/09/01 04:34:14;;;;;;;3.30;3.10;;;23.10;76.00;;;;;;5031767;28;20179;-70
2022/09/01 04:36:43;;;;;;;3.40;3.10;;;23.10;76.00;;;;;;5015773;28;20639;-71
2022/09/01 04:39:12;;;;;;;3.30;3.10;;;23.10;76.00;;;;;;5015040;28;20241;-70
2022/09/01 04:41:44;;;;;;;3.03;2.83;;;23.10;76.00;;;;;;5014469;28;20241;-70
2022/09/01 04:44:15;;;;;;;3.70;3.40;;;23.10;76.00;;;;;;5031426;28;20171;-70
2022/09/01 04:46:45;;;;;;;2.97;2.78;;;23.10;76.00;;;;;;5015508;28;20199;-70
2022/09/01 04:49:14;;;;;;;3.78;3.47;;;23.10;76.00;;;;;;5025438;28;20207;-70
2022/09/01 04:51:45;;;;;;;3.22;3.03;;;23.10;75.90;;;;;;5030615;28;20182;-70
2022/09/01 04:54:13;;;;;;;3.78;3.47;;;23.10;75.90;;;;;;5014894;28;20183;-70
2022/09/01 04:56:48;;;;;;;3.53;3.22;;;23.10;75.90;;;;;;5030862;28;20172;-70
2022/09/01 04:59:19;;;;;;;3.45;3.25;;;23.10;76.10;;;;;;5047708;28;20213;-70
2022/09/01 05:01:53;;;;;;;3.58;3.28;;;23.10;76.10;;;;;;5046679;28;20206;-70
2022/09/01 05:04:23;;;;;;;3.40;3.20;;;23.10;76.00;;;;;;5014643;28;20194;-70
2022/09/01 05:06:58;;;;;;;3.88;3.58;;;23.10;76.00;;;;;;5031093;28;20643;-70
2022/09/01 05:09:29;;;;;;;3.20;3.00;;;23.10;75.90;;;;;;5030969;28;20598;-70
2022/09/01 05:12:19;;;;;;;3.55;3.33;;;23.10;75.90;;;;;;5040006;28;20183;-69
2022/09/01 05:14:47;;;;;;;3.30;3.10;;;23.10;75.90;;;;;;5029561;28;20241;-70
2022/09/01 05:17:16;;;;;;;3.72;3.42;;;23.10;75.90;;;;;;5030826;28;20186;-70
2022/09/01 05:19:46;;;;;;;3.67;3.38;;;23.10;75.90;;;;;;5030488;28;20211;-70
2022/09/01 05:22:15;;;;;;;3.30;3.10;;;23.10;76.00;;;;;;5031227;28;20183;-70
2022/09/01 05:24:45;;;;;;;4.03;3.72;;;23.10;75.90;;;;;;5030999;28;20210;-70
2022/09/01 05:27:13;;;;;;;3.92;3.63;;;23.10;76.00;;;;;;5030916;28;20578;-70
2022/09/01 05:29:40;;;;;;;3.83;3.53;;;23.10;76.00;;;;;;5014269;28;20664;-70
2022/09/01 05:32:08;;;;;;;3.80;3.50;;;23.10;76.00;;;;;;5030980;28;20214;-71
2022/09/01 05:34:41;;;;;;;3.35;3.13;;;23.10;75.90;;;;;;5014903;28;20611;-69
2022/09/01 05:37:08;;;;;;;3.03;2.83;;;23.10;75.90;;;;;;5014848;28;20179;-69
2022/09/01 05:39:37;;;;;;;3.13;2.92;;;23.10;75.90;;;;;;5031315;28;20257;-69
2022/09/01 05:42:07;;;;;;;3.00;2.80;;;23.10;75.90;;;;;;5031779;28;20187;-69
2022/09/01 05:44:43;;;;;;;3.05;2.85;;;23.10;75.90;;;;;;5018442;28;20198;-69
2022/09/01 05:47:15;;;;;;;3.40;3.20;;;23.10;75.90;;;;;;5018545;28;20321;-69
2022/09/01 05:49:41;;;;;;;3.22;3.03;;;23.10;75.80;;;;;;5017678;28;20305;-70
2022/09/01 05:52:08;;;;;;;2.97;2.78;;;23.10;76.60;;;;;;5034334;28;20206;-69
2022/09/01 05:54:35;;;;;;;3.55;3.25;;;23.00;75.70;;;;;;5014663;28;20192;-70
2022/09/01 05:57:02;;;;;;;3.63;3.33;;;23.10;75.70;;;;;;5026072;28;20171;-70
2022/09/01 05:59:30;;;;;;;3.75;3.45;;;23.10;75.70;;;;;;5034754;28;20214;-70
2022/09/01 06:02:15;;;;;;;4.00;3.70;;;23.10;75.70;;;;;;5020893;28;20270;-70
2022/09/01 06:04:42;;;;;;;4.90;4.50;;;23.10;75.80;;;;;;5034337;28;20175;-69
2022/09/01 06:07:16;;;;;;;3.83;3.53;;;23.10;75.70;;;;;;5033551;28;20193;-70
2022/09/01 06:09:47;;;;;;;3.70;3.40;;;23.10;75.70;;;;;;5032539;28;20585;-69
2022/09/01 06:12:16;;;;;;;4.05;3.75;;;23.10;75.60;;;;;;5019034;28;20183;-69
2022/09/01 06:14:45;;;;;;;4.50;4.20;;;23.10;75.50;;;;;;5034478;28;20232;-69
2022/09/01 06:17:15;;;;;;;4.40;4.10;;;23.10;75.40;;;;;;5034053;28;20241;-69
2022/09/01 06:19:42;;;;;;;4.30;3.88;;;23.10;75.40;;;;;;5034021;28;20210;-69
2022/09/01 06:22:09;;;;;;;4.53;4.15;;;23.10;75.30;;;;;;5033276;28;20179;-70
2022/09/01 06:24:38;;;;;;;4.00;3.65;;;23.10;75.30;;;;;;5017553;28;20175;-70
2022/09/01 06:27:09;;;;;;;3.90;3.60;;;23.10;76.10;;;;;;5033640;28;20186;-70
2022/09/01 06:29:38;;;;;;;4.30;3.90;;;23.10;75.30;;;;;;5018312;28;20223;-69
2022/09/01 06:32:08;;;;;;;4.00;3.70;;;23.10;75.30;;;;;;5016896;28;20187;-69
2022/09/01 06:34:37;;;;;;;4.10;3.75;;;23.10;75.30;;;;;;5050629;28;20214;-69
2022/09/01 06:37:03;;;;;;;4.47;4.07;;;23.10;75.40;;;;;;5050183;28;20206;-69
2022/09/01 06:39:30;;;;;;;4.28;3.97;;;23.10;75.30;;;;;;5033391;28;20223;-70
2022/09/01 06:41:57;;;;;;;3.78;3.53;;;23.10;75.30;;;;;;5032803;28;20186;-69
2022/09/01 06:44:30;;;;;;;3.97;3.67;;;23.10;75.20;;;;;;5033739;28;20182;-69
2022/09/01 06:47:02;;;;;;;3.50;3.20;;;23.10;75.10;;;;;;5033730;28;20226;-69
2022/09/01 06:49:35;;;;;;;4.10;3.80;;;23.10;75.00;;;;;;5034572;28;20219;-70
2022/09/01 06:52:06;;;;;;;3.88;3.58;;;23.10;74.80;;;;;;5032539;28;20187;-69
2022/09/01 06:54:33;;;;;;;4.03;3.72;;;23.10;74.80;;;;;;5033320;28;20175;-69
2022/09/01 06:57:02;;;;;;;3.88;3.60;;;23.10;74.80;;;;;;5033448;28;20175;-69
2022/09/01 06:59:33;;;;;;;3.65;3.35;;;23.10;74.70;;;;;;5033389;28;20203;-70
2022/09/01 07:02:02;;;;;;;3.40;3.10;;;23.10;74.60;;;;;;5030488;28;20237;-68
2022/09/01 07:04:41;;;;;;;3.13;2.92;;;23.10;74.50;;;;;;5033190;28;20191;-69
2022/09/01 07:07:09;;;;;;;3.88;3.58;;;23.00;71.20;;;;;;5040805;28;20187;-69
2022/09/01 07:09:58;;;;;;;3.92;3.63;;;22.80;71.00;;;;;;5025220;28;20663;-69
2022/09/01 07:12:35;;;;;;;3.83;3.53;;;22.70;71.10;;;;;;5032567;28;20222;-70
2022/09/01 07:15:01;;;;;;;4.43;4.13;;;22.70;71.10;;;;;;5032846;28;20194;-69
2022/09/01 07:17:29;;;;;;;4.20;3.90;;;22.70;71.20;;;;;;5016123;28;20187;-69
2022/09/01 07:19:55;;;;;;;4.90;4.50;;;22.60;71.10;;;;;;5015516;28;20233;-69
2022/09/01 07:22:22;;;;;;;4.80;4.40;;;22.60;71.10;;;;;;5016451;28;20240;-69
2022/09/01 07:24:56;;;;;;;4.22;3.92;;;22.60;71.30;;;;;;5032854;28;20183;-70
2022/09/01 07:27:55;;;;;;;5.68;4.57;;;22.60;71.40;;;;;;5018605;28;20249;-70
2022/09/01 07:30:22;;;;;;;4.63;4.22;;;22.60;71.20;;;;;;5031083;28;20252;-69
2022/09/01 07:32:49;;;;;;;4.07;3.78;;;22.60;71.20;;;;;;5016032;28;20183;-69
2022/09/01 07:35:21;;;;;;;4.45;4.13;;;22.60;71.00;;;;;;5032625;28;20183;-69
2022/09/01 07:37:49;;;;;;;4.50;4.10;;;22.60;70.70;;;;;;5032474;28;20196;-69
2022/09/01 07:40:21;;;;;;;4.18;3.78;;;22.60;70.70;;;;;;5015978;28;20246;-69
2022/09/01 07:42:53;;;;;;;4.57;4.18;;;22.60;70.50;;;;;;5033699;28;20187;-69
2022/09/01 07:45:29;;;;;;;4.75;4.35;;;22.60;70.60;;;;;;5033131;28;20276;-68
2022/09/01 07:48:05;;;;;;;4.55;4.15;;;22.60;70.00;;;;;;5048621;28;20314;-69
2022/09/01 07:50:40;;;;;;;4.53;3.97;;;22.60;69.80;;;;;;5031350;28;20241;-70
2022/09/01 07:53:07;;;;;;;4.13;3.83;;;22.60;69.40;;;;;;5024977;28;20175;-69
2022/09/01 07:55:34;;;;;;;4.30;4.00;;;22.70;69.60;;;;;;5008458;28;20188;-70
2022/09/01 07:58:01;;;;;;;4.07;3.65;;;22.60;69.30;;;;;;5040337;28;20180;-69
2022/09/01 08:00:30;;;;;;;3.90;3.50;;;22.60;69.00;;;;;;5027683;28;20261;-71
2022/09/01 08:03:00;;;;;;;4.03;3.67;;;22.60;69.00;;;;;;5031551;28;20187;-69
2022/09/01 08:05:27;;;;;;;3.63;3.33;;;22.60;69.10;;;;;;5027406;28;20241;-69
2022/09/01 08:07:54;;;;;;;4.07;3.78;;;22.70;69.20;;;;;;5030439;28;20233;-70
2022/09/01 08:10:24;;;;;;;3.75;3.47;;;22.80;69.30;;;;;;5031361;28;20215;-69
2022/09/01 08:12:50;;;;;;;3.90;3.60;;;22.80;69.20;;;;;;5032016;28;20190;-70
2022/09/01 08:15:16;;;;;;;4.07;3.78;;;22.80;69.00;;;;;;5031864;28;20194;-70
2022/09/01 08:17:44;;;;;;;4.32;3.75;;;22.80;69.00;;;;;;5031543;28;20198;-70
2022/09/01 08:20:13;;;;;;;3.97;3.67;;;22.80;68.70;;;;;;5030478;28;20214;-69
2022/09/01 08:23:00;;;;;;;3.67;3.38;;;22.80;68.80;;;;;;5034278;28;20194;-70
2022/09/01 08:25:35;;;;;;;3.38;3.17;;;22.80;68.50;;;;;;5021098;28;20191;-70
2022/09/01 08:28:02;;;;;;;3.50;3.30;;;22.80;67.80;;;;;;5023535;28;20225;-69
2022/09/01 08:30:31;;;;;;;3.53;3.33;;;22.80;67.40;;;;;;5030973;28;20210;-69
2022/09/01 08:32:59;;;;;;;3.10;2.90;;;22.80;67.70;;;;;;5012040;28;20194;-69
2022/09/01 08:35:28;;;;;;;3.10;2.90;;;22.80;67.90;;;;;;5026432;28;20203;-69
2022/09/01 08:37:56;;;;;;;3.50;3.20;;;22.70;67.60;;;;;;5031319;28;20183;-69
2022/09/01 08:40:24;;;;;;;3.53;3.22;;;22.80;67.90;;;;;;5014655;28;20306;-69
2022/09/01 08:43:15;;;;;;;9.75;3.47;;;22.80;68.60;;;;;;5015074;28;20188;-69
2022/09/01 08:45:53;;;;;;;3.50;3.22;;;22.70;68.30;;;;;;5031418;28;20293;-69
2022/09/01 08:48:56;;;;;;;3.85;3.45;;;22.80;68.60;;;;;;5014436;28;20373;-69
2022/09/01 08:51:38;;;;;;;3.20;3.00;;;22.70;67.80;;;;;;5022445;28;20195;-69
2022/09/01 08:54:22;;;;;;;3.33;3.03;;;22.70;67.70;;;;;;5031201;28;20232;-69
2022/09/01 08:56:57;;;;;;;3.30;3.05;;;22.70;67.30;;;;;;5030930;28;20183;-69
2022/09/01 08:59:43;;;;;;;3.53;3.22;;;22.70;67.50;;;;;;5031116;28;20249;-69
2022/09/01 09:03:09;;;;;;;3.47;3.22;;;22.70;67.70;;;;;;5031513;28;20166;-70
2022/09/01 09:06:14;;;;;;;3.15;2.95;;;22.70;67.80;;;;;;5020182;28;20581;-70
2022/09/01 09:09:03;;;;;;;3.03;2.83;;;22.70;68.30;;;;;;5029067;28;20191;-69
2022/09/01 09:12:09;;;;;;;3.20;3.00;;;22.80;68.90;;;;;;5030559;28;20175;-69
2022/09/01 09:15:36;;;;;;;3.80;3.50;;;22.70;68.90;;;;;;5030744;28;20187;-69
2022/09/01 09:18:32;;;;;;;3.67;3.38;;;22.60;68.50;;;;;;5008599;28;20233;-70
2022/09/01 09:21:11;;;;;;;3.22;3.03;;;22.70;68.40;;;;;;5029946;28;20214;-69
2022/09/01 09:23:45;;;;;;;3.42;3.13;;;22.70;68.70;;;;;;5030869;28;20237;-69
2022/09/01 09:26:12;;;;;;;4.30;3.90;;;22.70;68.90;;;;;;5031880;28;20163;-69
2022/09/01 09:28:38;;;;;;;3.90;3.60;;;22.70;69.00;;;;;;5031859;28;20256;-69
2022/09/01 09:31:27;;;;;;;3.75;3.45;;;22.70;69.00;;;;;;5030493;28;20180;-69
2022/09/01 09:33:53;;;;;;;4.00;3.60;;;22.70;68.80;;;;;;5030366;28;20191;-69
2022/09/01 09:36:27;;;;;;;4.15;3.83;;;22.70;68.80;;;;;;5030759;28;20194;-70
2022/09/01 09:39:17;;;;;;;3.10;2.90;;;22.70;68.90;;;;;;5032158;28;20527;-70
2022/09/01 09:42:03;;;;;;;3.33;3.13;;;22.80;69.30;;;;;;5031185;28;20186;-70
2022/09/01 09:44:31;;;;;;;3.17;2.97;;;22.90;69.20;;;;;;5030682;28;20211;-69
2022/09/01 09:46:57;;;;;;;3.35;3.05;;;23.10;69.30;;;;;;5014062;28;20195;-69
2022/09/01 09:49:32;;;;;;;2.95;2.60;;;23.10;69.10;;;;;;5029958;28;20305;-69
2022/09/01 09:52:01;;;;;;;3.15;2.90;;;23.10;68.90;;;;;;5030272;28;20245;-69
2022/09/01 09:54:31;;;;;;;3.42;3.13;;;23.20;68.90;;;;;;5031679;28;20705;-69
2022/09/01 09:57:16;;;;;;;3.10;2.90;;;23.20;68.90;;;;;;5030219;28;20188;-70
2022/09/01 09:59:52;;;;;;;3.28;3.05;;;23.20;68.80;;;;;;5030563;28;20218;-70
2022/09/01 10:02:33;;;;;;;3.10;2.88;;;23.30;68.80;;;;;;5030476;28;20198;-70
2022/09/01 10:05:36;;;;;;;3.20;2.88;;;23.20;68.70;;;;;;5029936;28;20187;-70
2022/09/01 10:08:04;;;;;;;3.30;3.10;;;23.30;68.90;;;;;;5022443;28;20202;-70
2022/09/01 10:10:43;;;;;;;3.33;3.13;;;23.30;68.90;;;;;;5029227;28;20195;-71
2022/09/01 10:13:19;;;;;;;2.97;2.78;;;23.30;68.90;;;;;;5023321;28;20636;-70
2022/09/01 10:16:17;;;;;;;3.20;2.80;;;23.30;68.80;;;;;;5030816;28;20207;-70
2022/09/01 10:18:45;;;;;;;4.10;3.33;;;23.20;68.80;;;;;;5013678;28;20285;-70
2022/09/01 10:21:21;;;;;;;2.63;2.42;;;23.10;68.60;;;;;;5031174;28;20168;-69
2022/09/01 10:23:47;;;;;;;3.35;3.15;;;23.00;68.10;;;;;;5030501;28;20195;-70
2022/09/01 10:26:18;;;;;;;3.10;2.60;;;23.00;68.00;;;;;;5026079;28;20275;-70
2022/09/01 10:29:13;;;;;;;3.20;2.90;;;23.00;68.00;;;;;;5030947;28;20199;-69
2022/09/01 10:31:41;;;;;;;3.15;2.95;;;23.00;68.20;;;;;;5034526;28;20186;-69
2022/09/01 10:34:16;;;;;;;3.10;2.80;;;23.00;68.20;;;;;;5049016;28;20552;-71
2022/09/01 10:36:44;;;;;;;3.10;2.90;;;23.00;68.30;;;;;;5019986;28;20704;-69
2022/09/01 10:39:12;;;;;;;3.40;3.17;;;22.90;68.40;;;;;;5033940;28;20211;-69
2022/09/01 10:41:42;;;;;;;3.53;3.22;;;23.00;68.60;;;;;;5032999;28;20189;-70
2022/09/01 10:44:18;;;;;;;3.10;2.90;;;23.00;68.90;;;;;;5016905;28;20232;-69
2022/09/01 10:46:45;;;;;;;3.53;3.22;;;23.10;68.80;;;;;;5017101;28;20198;-69
2022/09/01 10:49:26;;;;;;;2.95;2.75;;;23.10;69.10;;;;;;5017130;28;20314;-69
2022/09/01 10:51:54;;;;;;;3.10;2.90;;;23.10;69.10;;;;;;5033330;28;20274;-70
2022/09/01 10:54:38;;;;;;;3.45;3.15;;;23.20;69.20;;;;;;5048672;28;20179;-69
2022/09/01 10:57:43;;;;;;;3.72;3.42;;;23.20;69.20;;;;;;5024294;28;20195;-70
2022/09/01 11:00:38;;;;;;;5.43;3.40;;;23.30;69.40;;;;;;5029485;28;20219;-70
2022/09/01 11:03:10;;;;;;;3.95;3.60;;;23.30;69.60;;;;;;5026120;28;20288;-70
2022/09/01 11:05:54;;;;;;;3.50;3.20;;;23.30;69.70;;;;;;5032507;28;20191;-69
2022/09/01 11:08:28;;;;;;;3.60;3.30;;;23.30;69.90;;;;;;5014862;28;20226;-70
2022/09/01 11:11:38;;;;;;;3.63;3.33;;;23.30;70.00;;;;;;5031902;28;20199;-70
2022/09/01 11:14:25;;;;;;;3.55;3.35;;;23.30;70.10;;;;;;5025381;28;20179;-69
2022/09/01 11:17:16;;;;;;;3.70;3.40;;;23.20;69.80;;;;;;5032992;28;20187;-69
2022/09/01 11:19:59;;;;;;;3.13;2.92;;;23.30;70.30;;;;;;5034374;28;20199;-71
2022/09/01 11:22:33;;;;;;;3.50;3.20;;;23.30;70.10;;;;;;5032877;28;20187;-70
2022/09/01 11:25:33;;;;;;;3.40;3.10;;;23.20;69.70;;;;;;5049792;28;20229;-70
2022/09/01 11:28:07;;;;;;;3.35;3.13;;;23.20;69.90;;;;;;5032937;28;20610;-70
2022/09/01 11:31:20;;;;;;;3.10;2.90;;;23.20;69.90;;;;;;5015768;28;20215;-69
2022/09/01 11:33:57;;;;;;;3.50;3.25;;;23.20;69.70;;;;;;5021773;28;20202;-70
2022/09/01 11:36:44;;;;;;;3.80;3.50;;;23.20;70.00;;;;;;5032879;28;20199;-70
2022/09/01 11:39:28;;;;;;;3.35;3.00;;;23.30;70.00;;;;;;5017300;28;20294;-70
2022/09/01 11:42:09;;;;;;;3.35;3.05;;;23.20;69.80;;;;;;5032174;28;20190;-70
2022/09/01 11:45:01;;;;;;;3.53;3.33;;;23.20;69.60;;;;;;5033751;28;20289;-70
2022/09/01 11:47:45;;;;;;;3.30;3.00;;;23.20;69.80;;;;;;5023104;28;20200;-71
2022/09/01 11:50:21;;;;;;;3.20;3.00;;;23.30;69.80;;;;;;5026841;28;20203;-69
2022/09/01 11:52:59;;;;;;;3.60;3.40;;;23.30;69.60;;;;;;5032501;28;20190;-70
2022/09/01 11:55:48;;;;;;;3.40;3.20;;;23.30;69.60;;;;;;5032121;28;20274;-70
2022/09/01 11:58:38;;;;;;;3.60;3.30;;;23.30;69.70;;;;;;5033433;28;20183;-70
2022/09/01 12:01:33;;;;;;;3.00;2.80;;;23.30;69.70;;;;;;5015084;28;20207;-70
2022/09/01 12:04:30;;;;;;;3.60;3.30;;;23.30;69.50;;;;;;5030898;28;20282;-70
2022/09/01 12:07:12;;;;;;;4.63;3.25;;;23.30;69.60;;;;;;5032170;28;20191;-69
2022/09/01 12:09:47;;;;;;;3.30;3.00;;;23.30;69.30;;;;;;5048680;28;20214;-70
2022/09/01 12:12:36;;;;;;;3.47;3.17;;;23.20;69.40;;;;;;5015355;28;20171;-69
2022/09/01 12:15:10;;;;;;;3.10;2.90;;;23.10;68.90;;;;;;5033484;28;20175;-69
2022/09/01 12:17:36;;;;;;;3.42;3.20;;;23.10;68.60;;;;;;5010925;28;20571;-70
2022/09/01 12:20:34;;;;;;;3.28;3.08;;;23.10;68.40;;;;;;5032061;28;20210;-70
2022/09/01 12:23:01;;;;;;;3.30;3.00;;;23.10;68.00;;;;;;5015765;28;20191;-70
2022/09/01 12:25:34;;;;;;;3.50;3.20;;;23.00;67.70;;;;;;5031955;28;20194;-69
2022/09/01 12:28:02;;;;;;;3.38;3.17;;;23.10;67.60;;;;;;5031387;28;20194;-70
2022/09/01 12:30:34;;;;;;;3.63;3.40;;;23.10;67.50;;;;;;5027185;28;20207;-69
2022/09/01 12:33:05;;;;;;;3.05;2.85;;;23.10;67.70;;;;;;5032549;28;20172;-69
2022/09/01 12:35:31;;;;;;;3.03;2.83;;;23.10;67.90;;;;;;5032866;28;20262;-70
2022/09/01 12:38:18;;;;;;;3.50;2.95;;;23.10;67.90;;;;;;5030591;28;20294;-70
2022/09/01 12:40:56;;;;;;;2.70;2.50;;;23.10;67.90;;;;;;5032154;28;20698;-70
2022/09/01 12:43:35;;;;;;;3.20;2.95;;;23.10;68.00;;;;;;5031642;28;20193;-69
2022/09/01 12:46:03;;;;;;;3.22;3.03;;;23.10;67.80;;;;;;5032651;28;20288;-70
2022/09/01 12:48:32;;;;;;;2.88;2.67;;;23.10;67.70;;;;;;5031726;28;20223;-70
2022/09/01 12:51:02;;;;;;;3.10;2.90;;;23.10;67.60;;;;;;5012070;28;20213;-70
2022/09/01 12:53:32;;;;;;;3.15;2.95;;;23.10;67.50;;;;;;5010341;28;20192;-70
2022/09/01 12:56:18;;;;;;;3.00;2.80;;;23.00;67.40;;;;;;5031354;28;20179;-70
2022/09/01 12:58:50;;;;;;;3.13;2.92;;;23.00;67.20;;;;;;5031355;28;20194;-70
2022/09/01 13:01:32;;;;;;;3.00;2.80;;;23.00;67.10;;;;;;5030561;28;20167;-70
2022/09/01 13:04:32;;;;;;;3.22;3.03;;;23.00;67.10;;;;;;5015114;28;20195;-70
2022/09/01 13:07:06;;;;;;;3.13;2.92;;;23.00;67.10;;;;;;5009992;28;20198;-70
2022/09/01 13:09:32;;;;;;;3.10;2.90;;;23.00;67.20;;;;;;5031194;28;20273;-70
2022/09/01 13:12:20;;;;;;;3.15;2.95;;;23.10;67.50;;;;;;5030519;28;20187;-69
2022/09/01 13:14:46;;;;;;;3.53;3.28;;;23.00;67.50;;;;;;5020495;28;20267;-70
2022/09/01 13:17:12;;;;;;;3.75;3.45;;;23.00;67.60;;;;;;5024979;28;20183;-70
2022/09/01 13:19:39;;;;;;;3.45;3.00;;;23.00;67.80;;;;;;5030934;28;20317;-70
2022/09/01 13:22:05;;;;;;;3.05;2.85;;;23.10;67.90;;;;;;5030620;28;20227;-70
2022/09/01 13:24:31;;;;;;;3.85;3.28;;;23.10;67.90;;;;;;5031102;28;20195;-69
2022/09/01 13:26:58;;;;;;;3.17;2.88;;;23.10;67.80;;;;;;5030942;28;20270;-70